Huachuca City, Arizona
Current Conditions -  °F | °C
As of 11:55 PM on Thursday 30 Oct 2014 (Local Time) from KFHU Reporting Station
Few Clouds Few Clouds  
Wind Chill: 63°   Ceiling: Unl
Heat Index: 63°   Visibility: 10mi
Dew Point: 39°   Wind: 7mph
Humidity: 42%   Direction: 160°SSE
Pressure: 30.16"   Gusts: NA
Location:  31.63°N, 110.33°W
Report Text: KFHU 310655Z 16006KT 10SM FEW280 17/04 A3016 RMK SLP158
Loading
Personal Weather Stations






























Interactive Weather Map
Tropical Storm Tracking
New forecast layout! Learn more

10-Day Weather Forecast

Advertisements
Track Severe Weather on mobile